Time;durP1;ratioP1;P1;durP2;ratioP2;P2;SDS_P1;SDS_P2;PMS_P1;PMS_P2;Temp;Humidity;BMP_temperature;BMP_pressure;BME280_temperature;BME280_humidity;BME280_pressure;Samples;Min_cycle;Max_cycle;Signal;HPM_P1;HPM_P2
2022/10/13 14:10:14;;;;;;;39.28;20.65;;;;;;;;;;7302439;19;20021;-76
2022/10/13 16:54:01;;;;;;;12.45;4.50;;;;;;;;;;7303887;19;20110;-74
2022/10/13 16:56:26;;;;;;;11.20;5.28;;;;;;;;;;7325977;19;20612;-75
2022/10/13 16:58:53;;;;;;;14.77;5.18;;;;;;;;;;7356749;19;19999;-73
2022/10/13 17:01:18;;;;;;;11.65;5.75;;;;;;;;;;7363215;19;20065;-74
2022/10/13 17:03:44;;;;;;;11.77;5.47;;;;;;;;;;7370690;19;20375;-75
2022/10/13 17:06:10;;;;;;;10.63;5.40;;;;;;;;;;7374109;19;20007;-73
2022/10/13 17:08:39;;;;;;;13.43;6.03;;;;;;;;;;7366089;19;20053;-74
2022/10/13 17:11:04;;;;;;;10.05;5.53;;;;;;;;;;7336409;19;20588;-74
2022/10/13 17:13:30;;;;;;;10.65;5.70;;;;;;;;;;7366999;19;20014;-76
2022/10/13 17:15:55;;;;;;;12.40;6.85;;;;;;;;;;7371677;19;20038;-74
2022/10/13 17:18:21;;;;;;;13.85;6.32;;;;;;;;;;7362206;19;20004;-76
2022/10/13 17:20:53;;;;;;;10.85;5.82;;;;;;;;;;7365248;19;20062;-75
2022/10/13 17:23:19;;;;;;;13.02;6.93;;;;;;;;;;7364537;19;20010;-77
2022/10/13 17:25:44;;;;;;;15.20;6.82;;;;;;;;;;7362899;19;20026;-75
2022/10/13 17:28:10;;;;;;;12.50;6.75;;;;;;;;;;7367540;19;20034;-75
2022/10/13 17:30:35;;;;;;;15.18;7.50;;;;;;;;;;7372505;19;20027;-75
2022/10/13 17:33:00;;;;;;;14.50;7.93;;;;;;;;;;7360269;19;20341;-76
2022/10/13 17:35:26;;;;;;;17.00;8.27;;;;;;;;;;7372443;19;20254;-75
2022/10/13 17:37:53;;;;;;;12.13;7.43;;;;;;;;;;7373981;19;20013;-76
2022/10/13 17:40:18;;;;;;;17.05;7.95;;;;;;;;;;7359478;19;20410;-74
2022/10/13 17:42:43;;;;;;;20.73;8.40;;;;;;;;;;7373102;19;19994;-75
2022/10/13 17:45:09;;;;;;;16.30;8.63;;;;;;;;;;7371779;19;20243;-77
2022/10/13 17:47:34;;;;;;;16.13;9.73;;;;;;;;;;7348571;19;20264;-76
2022/10/13 17:49:59;;;;;;;19.77;9.33;;;;;;;;;;7364281;19;20010;-76
2022/10/13 17:52:24;;;;;;;17.07;8.40;;;;;;;;;;7366453;19;20262;-74
2022/10/13 17:54:49;;;;;;;18.75;9.75;;;;;;;;;;7355017;19;20774;-76
2022/10/13 17:57:15;;;;;;;19.03;10.50;;;;;;;;;;7368150;19;20014;-75
2022/10/13 17:59:40;;;;;;;19.02;10.07;;;;;;;;;;7373468;19;20323;-75
2022/10/13 18:02:05;;;;;;;18.45;10.50;;;;;;;;;;7367990;19;20006;-74
2022/10/13 18:04:30;;;;;;;17.53;9.80;;;;;;;;;;7378005;19;20007;-75
2022/10/13 18:06:55;;;;;;;18.07;10.80;;;;;;;;;;7381697;19;20598;-74
2022/10/13 18:09:23;;;;;;;16.98;10.15;;;;;;;;;;7377588;19;20347;-76
2022/10/13 18:11:48;;;;;;;20.20;9.98;;;;;;;;;;7372749;19;20014;-74
2022/10/13 18:14:13;;;;;;;21.40;10.63;;;;;;;;;;7381700;19;20006;-75
2022/10/13 18:16:41;;;;;;;18.92;11.10;;;;;;;;;;7366607;19;20011;-74
2022/10/13 18:19:06;;;;;;;19.17;10.98;;;;;;;;;;7378961;19;20009;-73
2022/10/13 18:21:31;;;;;;;19.42;10.75;;;;;;;;;;7377702;19;20014;-74
2022/10/13 18:23:57;;;;;;;28.00;12.17;;;;;;;;;;7375045;19;20093;-77
2022/10/13 18:26:23;;;;;;;20.40;11.15;;;;;;;;;;7374374;19;20258;-76
2022/10/13 18:28:49;;;;;;;24.40;13.18;;;;;;;;;;7372510;19;20054;-75
2022/10/13 18:31:14;;;;;;;26.15;12.05;;;;;;;;;;7372387;19;20410;-75
2022/10/13 18:33:40;;;;;;;20.93;11.67;;;;;;;;;;7377093;19;20041;-75
2022/10/13 18:36:11;;;;;;;25.00;12.68;;;;;;;;;;7379803;19;20252;-75
2022/10/13 18:38:36;;;;;;;19.95;11.00;;;;;;;;;;7368430;19;20016;-76
2022/10/13 18:41:02;;;;;;;24.90;12.97;;;;;;;;;;7377398;19;20018;-75
2022/10/13 18:43:28;;;;;;;22.17;12.27;;;;;;;;;;7378076;19;20252;-76
2022/10/13 18:45:57;;;;;;;21.75;12.60;;;;;;;;;;7378266;19;20018;-75
2022/10/13 18:48:22;;;;;;;19.90;12.18;;;;;;;;;;7376824;19;20011;-74
2022/10/13 18:50:47;;;;;;;18.87;10.97;;;;;;;;;;7378734;19;20451;-75
2022/10/13 18:53:12;;;;;;;22.80;12.13;;;;;;;;;;7367937;19;20263;-73
2022/10/13 18:55:41;;;;;;;22.97;13.73;;;;;;;;;;7373591;19;20242;-74
2022/10/13 18:58:06;;;;;;;29.17;13.90;;;;;;;;;;7374585;19;20255;-74
2022/10/13 19:00:32;;;;;;;28.55;14.25;;;;;;;;;;7369731;19;20010;-72
2022/10/13 19:02:57;;;;;;;24.10;13.63;;;;;;;;;;7379609;19;19991;-74
2022/10/13 19:05:22;;;;;;;22.15;12.90;;;;;;;;;;7378332;19;20041;-76
2022/10/13 19:07:47;;;;;;;24.17;13.67;;;;;;;;;;7369773;19;20078;-76
2022/10/13 19:10:12;;;;;;;23.43;13.83;;;;;;;;;;7364011;19;20266;-75
2022/10/13 19:12:37;;;;;;;22.55;13.30;;;;;;;;;;7363729;19;20255;-73
2022/10/13 19:15:03;;;;;;;25.52;14.90;;;;;;;;;;7371675;19;20026;-73
2022/10/13 19:17:28;;;;;;;22.67;13.52;;;;;;;;;;7325274;19;20010;-75
2022/10/13 19:19:53;;;;;;;26.38;15.38;;;;;;;;;;7353327;19;20138;-74
2022/10/13 19:22:18;;;;;;;21.88;14.23;;;;;;;;;;7356456;19;20078;-75
2022/10/13 19:24:44;;;;;;;31.70;15.13;;;;;;;;;;7361596;19;20094;-76
2022/10/13 19:27:09;;;;;;;22.95;14.25;;;;;;;;;;7355360;19;20258;-76
2022/10/13 19:29:34;;;;;;;24.10;14.53;;;;;;;;;;7360174;19;19995;-76
2022/10/13 19:31:59;;;;;;;28.17;14.90;;;;;;;;;;7358181;19;20255;-75
2022/10/13 19:34:24;;;;;;;28.58;15.55;;;;;;;;;;7370956;19;20027;-74
2022/10/13 19:36:50;;;;;;;25.20;15.98;;;;;;;;;;7365784;19;20449;-74
2022/10/13 19:39:20;;;;;;;24.83;15.63;;;;;;;;;;7348536;19;20030;-74
2022/10/13 19:41:45;;;;;;;28.05;14.13;;;;;;;;;;7363879;19;21034;-73
2022/10/13 19:44:11;;;;;;;27.65;16.50;;;;;;;;;;7365452;19;20045;-74
2022/10/13 19:46:37;;;;;;;29.27;15.65;;;;;;;;;;7363404;19;20001;-74
2022/10/13 19:49:03;;;;;;;26.92;15.60;;;;;;;;;;7366345;19;20119;-75
2022/10/13 19:51:28;;;;;;;25.70;14.48;;;;;;;;;;7371266;19;20010;-76
2022/10/13 19:53:53;;;;;;;27.77;15.75;;;;;;;;;;7357869;19;20767;-74
2022/10/13 19:56:23;;;;;;;28.08;15.27;;;;;;;;;;7367452;19;20377;-73
2022/10/13 19:58:49;;;;;;;25.83;15.68;;;;;;;;;;7374268;19;20006;-74
2022/10/13 20:01:14;;;;;;;24.98;15.32;;;;;;;;;;7365917;19;20014;-75
2022/10/13 20:03:39;;;;;;;28.33;16.15;;;;;;;;;;7370644;19;20407;-74
2022/10/13 20:06:05;;;;;;;24.93;15.00;;;;;;;;;;7370784;19;20022;-76
2022/10/13 20:08:30;;;;;;;27.50;15.05;;;;;;;;;;7368137;19;20244;-75
2022/10/13 20:10:55;;;;;;;32.55;16.35;;;;;;;;;;7366402;19;20011;-74
2022/10/13 20:13:21;;;;;;;24.90;15.57;;;;;;;;;;7374182;19;20010;-74
2022/10/13 20:15:46;;;;;;;25.00;15.73;;;;;;;;;;7365114;19;20273;-74
2022/10/13 20:18:12;;;;;;;26.00;15.33;;;;;;;;;;7370582;19;20267;-76
2022/10/13 20:20:37;;;;;;;27.85;15.82;;;;;;;;;;7367045;19;20258;-77
2022/10/13 20:23:03;;;;;;;29.20;15.65;;;;;;;;;;7366047;19;20002;-75
2022/10/13 20:25:28;;;;;;;24.30;16.15;;;;;;;;;;7365098;19;20504;-73
2022/10/13 20:27:53;;;;;;;27.58;14.18;;;;;;;;;;7371893;19;20066;-74
2022/10/13 20:30:18;;;;;;;23.38;15.80;;;;;;;;;;7370099;19;20387;-74
2022/10/13 20:32:43;;;;;;;24.57;14.97;;;;;;;;;;7365392;19;20011;-74
2022/10/13 20:35:09;;;;;;;25.45;15.20;;;;;;;;;;7365892;19;20277;-74
2022/10/13 20:37:34;;;;;;;22.43;14.00;;;;;;;;;;7345966;19;20362;-74
2022/10/13 20:39:59;;;;;;;22.17;13.77;;;;;;;;;;7358732;19;20231;-76
2022/10/13 20:42:24;;;;;;;24.75;14.52;;;;;;;;;;7365995;19;20794;-74
2022/10/13 20:44:49;;;;;;;21.73;13.65;;;;;;;;;;7362968;19;20018;-73
2022/10/13 20:47:15;;;;;;;21.05;13.45;;;;;;;;;;7361153;19;20585;-75
2022/10/13 20:49:40;;;;;;;24.33;13.97;;;;;;;;;;7359273;19;20009;-74
2022/10/13 20:52:05;;;;;;;24.33;13.30;;;;;;;;;;7363519;19;20272;-74
2022/10/13 20:54:30;;;;;;;20.60;13.25;;;;;;;;;;7366807;19;20422;-75
2022/10/13 20:56:56;;;;;;;24.50;12.93;;;;;;;;;;7365305;19;20019;-74
2022/10/13 20:59:22;;;;;;;19.67;13.13;;;;;;;;;;7369600;19;20260;-73
2022/10/13 21:01:47;;;;;;;21.77;13.63;;;;;;;;;;7359676;19;20359;-74
2022/10/13 21:04:12;;;;;;;23.03;13.57;;;;;;;;;;7366324;19;20110;-73
2022/10/13 21:06:37;;;;;;;24.70;13.75;;;;;;;;;;7360792;19;20592;-74
2022/10/13 21:09:04;;;;;;;22.02;13.40;;;;;;;;;;7367450;19;20482;-73
2022/10/13 21:11:29;;;;;;;22.90;13.70;;;;;;;;;;7365955;19;20597;-74
2022/10/13 21:13:54;;;;;;;21.63;13.38;;;;;;;;;;7372248;19;20018;-74
2022/10/13 21:16:21;;;;;;;22.27;13.50;;;;;;;;;;7367017;19;20006;-75
2022/10/13 21:18:48;;;;;;;20.35;12.75;;;;;;;;;;7365876;19;20259;-76
2022/10/13 21:21:14;;;;;;;18.02;11.20;;;;;;;;;;7371525;19;20088;-73
2022/10/13 21:23:39;;;;;;;18.70;12.23;;;;;;;;;;7362017;19;20003;-74
2022/10/13 21:26:05;;;;;;;18.23;11.32;;;;;;;;;;7368369;19;20381;-74
2022/10/13 21:28:31;;;;;;;23.30;13.07;;;;;;;;;;7367749;19;20017;-74
2022/10/13 21:31:03;;;;;;;20.10;11.40;;;;;;;;;;7372891;19;20010;-75
2022/10/13 21:33:29;;;;;;;22.00;12.13;;;;;;;;;;7374968;19;20014;-74
2022/10/13 21:35:54;;;;;;;18.35;11.95;;;;;;;;;;7372463;19;20019;-73
2022/10/13 21:38:19;;;;;;;18.02;10.88;;;;;;;;;;7371126;19;20503;-75
2022/10/13 21:40:44;;;;;;;19.23;10.93;;;;;;;;;;7372452;19;20033;-74
2022/10/13 21:43:10;;;;;;;19.00;10.65;;;;;;;;;;7372458;19;20570;-76
2022/10/13 21:45:35;;;;;;;17.52;10.15;;;;;;;;;;7365149;19;20021;-74
2022/10/13 21:48:01;;;;;;;21.37;9.97;;;;;;;;;;7375772;19;20328;-73
2022/10/13 21:50:26;;;;;;;16.08;9.60;;;;;;;;;;7373914;19;20568;-75
2022/10/13 21:52:52;;;;;;;17.27;9.82;;;;;;;;;;7365871;19;20458;-73
2022/10/13 21:55:17;;;;;;;13.75;9.10;;;;;;;;;;7370585;19;20021;-75
2022/10/13 21:57:42;;;;;;;19.23;9.50;;;;;;;;;;7372183;19;20006;-73
2022/10/13 22:00:07;;;;;;;17.85;10.27;;;;;;;;;;7360715;19;21016;-74
2022/10/13 22:02:33;;;;;;;18.35;9.43;;;;;;;;;;7370877;19;20003;-73
2022/10/13 22:04:58;;;;;;;14.83;8.90;;;;;;;;;;7374372;19;20034;-75
2022/10/13 22:07:23;;;;;;;14.77;8.60;;;;;;;;;;7372941;19;20256;-77
2022/10/13 22:09:48;;;;;;;20.02;9.70;;;;;;;;;;7368553;19;20683;-74
2022/10/13 22:12:13;;;;;;;15.70;9.57;;;;;;;;;;7343188;19;20490;-76
2022/10/13 22:14:39;;;;;;;16.77;10.07;;;;;;;;;;7365004;19;20247;-77
2022/10/13 22:17:06;;;;;;;16.60;9.13;;;;;;;;;;7372219;19;19995;-77
2022/10/13 22:19:31;;;;;;;14.10;8.57;;;;;;;;;;7366499;19;20351;-73
2022/10/13 22:21:56;;;;;;;14.23;8.37;;;;;;;;;;7366803;19;20034;-75
2022/10/13 22:24:21;;;;;;;15.13;8.37;;;;;;;;;;7373837;19;20256;-74
2022/10/13 22:26:47;;;;;;;14.10;8.18;;;;;;;;;;7371190;19;20330;-73
2022/10/13 22:29:14;;;;;;;10.57;7.85;;;;;;;;;;7367497;19;20386;-74
2022/10/13 22:31:39;;;;;;;16.27;8.45;;;;;;;;;;7370801;19;20471;-74
2022/10/13 22:34:04;;;;;;;14.88;8.50;;;;;;;;;;7374854;19;20009;-74
2022/10/13 22:36:30;;;;;;;13.00;7.55;;;;;;;;;;7365580;19;20393;-76
2022/10/13 22:38:56;;;;;;;13.13;7.63;;;;;;;;;;7373729;19;19994;-74
2022/10/13 22:41:21;;;;;;;16.92;7.85;;;;;;;;;;7367030;19;20372;-74
2022/10/13 22:43:54;;;;;;;16.08;7.60;;;;;;;;;;7351093;19;20022;-77
2022/10/13 22:46:21;;;;;;;14.80;7.50;;;;;;;;;;7367681;19;20019;-73
2022/10/13 22:48:46;;;;;;;11.15;7.20;;;;;;;;;;7379962;19;20405;-73
2022/10/13 22:51:12;;;;;;;14.40;7.50;;;;;;;;;;7367191;19;20010;-75
2022/10/13 22:53:38;;;;;;;13.32;7.22;;;;;;;;;;7358657;19;20470;-74
2022/10/13 22:56:05;;;;;;;15.35;7.00;;;;;;;;;;7374604;19;20036;-76
2022/10/13 22:58:30;;;;;;;11.82;6.72;;;;;;;;;;7379120;19;20022;-72
2022/10/13 23:00:55;;;;;;;12.67;6.97;;;;;;;;;;7380887;19;20006;-73
2022/10/13 23:03:20;;;;;;;12.20;7.03;;;;;;;;;;7373958;19;20581;-74
2022/10/13 23:05:46;;;;;;;15.03;7.47;;;;;;;;;;7375451;19;20383;-75
2022/10/13 23:08:11;;;;;;;14.48;6.80;;;;;;;;;;7381351;19;20728;-73
2022/10/13 23:10:37;;;;;;;12.48;6.88;;;;;;;;;;7377305;19;20111;-74
2022/10/13 23:13:02;;;;;;;10.73;7.00;;;;;;;;;;7371325;19;20018;-74
2022/10/13 23:15:28;;;;;;;13.43;7.13;;;;;;;;;;7377462;19;20042;-77
2022/10/13 23:17:53;;;;;;;13.20;7.30;;;;;;;;;;7381894;19;20510;-74
2022/10/13 23:20:18;;;;;;;12.97;7.23;;;;;;;;;;7380107;19;20244;-75
2022/10/13 23:22:43;;;;;;;12.70;6.93;;;;;;;;;;7369508;19;20702;-75
2022/10/13 23:25:09;;;;;;;13.73;7.20;;;;;;;;;;7371649;19;20806;-74
2022/10/13 23:27:34;;;;;;;11.07;6.85;;;;;;;;;;7377868;19;20037;-74
2022/10/13 23:29:59;;;;;;;13.82;7.00;;;;;;;;;;7379675;19;20014;-74
2022/10/13 23:32:24;;;;;;;11.05;6.60;;;;;;;;;;7378424;19;20033;-74
2022/10/13 23:34:49;;;;;;;13.20;6.90;;;;;;;;;;7375494;19;20002;-74
2022/10/13 23:37:15;;;;;;;11.37;6.60;;;;;;;;;;7374150;19;20260;-75
2022/10/13 23:39:40;;;;;;;14.07;6.47;;;;;;;;;;7378720;19;20239;-75
2022/10/13 23:42:05;;;;;;;11.73;7.20;;;;;;;;;;7367824;19;20239;-76
2022/10/13 23:44:30;;;;;;;11.90;6.85;;;;;;;;;;7370295;19;20007;-75
2022/10/13 23:46:55;;;;;;;14.07;6.97;;;;;;;;;;7377500;19;20066;-74
2022/10/13 23:49:20;;;;;;;13.17;6.83;;;;;;;;;;7374136;19;20770;-72
2022/10/13 23:51:46;;;;;;;11.00;6.17;;;;;;;;;;7375376;19;20264;-74
2022/10/13 23:54:11;;;;;;;13.52;7.13;;;;;;;;;;7346203;19;20267;-76
2022/10/13 23:56:37;;;;;;;15.20;6.83;;;;;;;;;;7365320;19;20585;-78
2022/10/13 23:59:02;;;;;;;11.52;7.65;;;;;;;;;;7376149;19;20516;-73
